createdAt,value
2022-08-31T00:00:13.752Z,4.15
2022-08-31T00:02:59.408Z,4.32
2022-08-31T00:05:26.366Z,4.45
2022-08-31T00:07:55.486Z,4.97
2022-08-31T00:10:32.334Z,5.13
2022-08-31T00:13:06.773Z,4.25
2022-08-31T00:15:35.595Z,9.95
2022-08-31T00:18:03.599Z,4.80
2022-08-31T00:20:33.784Z,4.20
2022-08-31T00:23:06.360Z,4.40
2022-08-31T00:25:34.354Z,4.95
2022-08-31T00:28:01.940Z,4.60
2022-08-31T00:30:29.916Z,5.10
2022-08-31T00:32:58.447Z,4.38
2022-08-31T00:35:27.577Z,4.60
2022-08-31T00:37:54.713Z,4.63
2022-08-31T00:40:21.901Z,4.50
2022-08-31T00:42:51.493Z,4.32
2022-08-31T00:45:18.848Z,4.25
2022-08-31T00:47:45.666Z,5.15
2022-08-31T00:50:15.329Z,4.18
2022-08-31T00:52:46.647Z,4.45
2022-08-31T00:55:18.129Z,4.70
2022-08-31T00:57:48.083Z,4.13
2022-08-31T01:00:19.267Z,3.95
2022-08-31T01:02:47.058Z,4.38
2022-08-31T01:05:14.986Z,4.35
2022-08-31T01:07:42.523Z,5.05
2022-08-31T01:10:10.677Z,4.25
2022-08-31T01:12:37.838Z,5.60
2022-08-31T01:15:08.717Z,4.32
2022-08-31T01:17:36.735Z,4.75
2022-08-31T01:20:12.367Z,4.72
2022-08-31T01:22:44.923Z,4.53
2022-08-31T01:25:13.696Z,4.45
2022-08-31T01:27:40.835Z,4.28
2022-08-31T01:30:11.421Z,5.15
2022-08-31T01:32:39.983Z,4.65
2022-08-31T01:35:07.621Z,4.47
2022-08-31T01:37:39.054Z,4.95
2022-08-31T01:40:07.478Z,4.88
2022-08-31T01:42:34.616Z,4.75
2022-08-31T01:45:02.528Z,4.90
2022-08-31T01:47:31.887Z,4.85
2022-08-31T01:49:58.732Z,5.32
2022-08-31T01:52:28.020Z,4.97
2022-08-31T01:54:55.966Z,4.50
2022-08-31T01:57:30.879Z,5.35
2022-08-31T02:00:05.632Z,4.55
2022-08-31T02:02:32.642Z,5.15
2022-08-31T02:04:59.623Z,5.13
2022-08-31T02:07:27.103Z,4.47
2022-08-31T02:09:54.779Z,5.05
2022-08-31T02:12:21.671Z,4.93
2022-08-31T02:14:48.640Z,5.60
2022-08-31T02:17:16.400Z,5.35
2022-08-31T02:19:43.386Z,4.97
2022-08-31T02:22:10.260Z,4.72
2022-08-31T02:24:37.094Z,5.75
2022-08-31T02:27:04.116Z,5.18
2022-08-31T02:29:31.215Z,5.15
2022-08-31T02:31:58.679Z,5.22
2022-08-31T02:34:25.617Z,4.85
2022-08-31T02:36:52.724Z,4.97
2022-08-31T02:39:19.911Z,5.05
2022-08-31T02:41:47.348Z,4.75
2022-08-31T02:44:14.567Z,4.78
2022-08-31T02:46:44.577Z,4.78
2022-08-31T02:49:11.494Z,4.40
2022-08-31T02:51:42.446Z,5.20
2022-08-31T02:54:09.476Z,5.00
2022-08-31T02:56:36.448Z,4.90
2022-08-31T02:59:03.667Z,4.78
2022-08-31T03:01:30.607Z,4.80
2022-08-31T03:03:57.709Z,4.43
2022-08-31T03:06:24.493Z,4.82
2022-08-31T03:08:51.422Z,4.88
2022-08-31T03:11:19.343Z,4.75
2022-08-31T03:13:46.314Z,4.72
2022-08-31T03:16:15.156Z,4.57
2022-08-31T03:18:42.449Z,4.65
2022-08-31T03:21:09.282Z,4.43
2022-08-31T03:23:36.887Z,4.32
2022-08-31T03:26:05.883Z,5.65
2022-08-31T03:28:34.432Z,4.63
2022-08-31T03:31:01.510Z,5.20
2022-08-31T03:33:28.495Z,4.88
2022-08-31T03:35:55.361Z,4.68
2022-08-31T03:38:22.125Z,4.57
2022-08-31T03:40:50.935Z,4.65
2022-08-31T03:43:18.049Z,4.83
2022-08-31T03:45:44.893Z,4.75
2022-08-31T03:48:13.171Z,4.78
2022-08-31T03:50:41.600Z,4.00
2022-08-31T03:53:09.483Z,4.95
2022-08-31T03:55:39.283Z,4.47
2022-08-31T03:58:07.479Z,4.40
2022-08-31T04:00:34.976Z,4.47
2022-08-31T04:03:02.433Z,4.43
2022-08-31T04:05:31.170Z,5.07
2022-08-31T04:07:58.495Z,4.90
2022-08-31T04:10:25.324Z,4.55
2022-08-31T04:12:52.493Z,4.78
2022-08-31T04:15:20.459Z,4.57
2022-08-31T04:17:47.877Z,5.10
2022-08-31T04:20:16.511Z,4.28
2022-08-31T04:22:43.391Z,4.45
2022-08-31T04:25:10.560Z,3.83
2022-08-31T04:27:40.473Z,4.10
2022-08-31T04:30:09.478Z,4.40
2022-08-31T04:32:36.499Z,4.07
2022-08-31T04:35:04.427Z,4.47
2022-08-31T04:37:43.410Z,4.80
2022-08-31T04:40:20.384Z,4.40
2022-08-31T04:42:52.656Z,4.22
2022-08-31T04:45:19.537Z,3.92
2022-08-31T04:47:46.435Z,3.85
2022-08-31T04:50:16.637Z,4.50
2022-08-31T04:52:45.205Z,3.97
2022-08-31T04:55:30.571Z,4.20
2022-08-31T04:57:57.492Z,4.03
2022-08-31T05:00:24.938Z,3.83
2022-08-31T05:02:53.587Z,3.83
2022-08-31T05:05:20.406Z,3.70
2022-08-31T05:07:47.306Z,4.20
2022-08-31T05:10:15.107Z,4.10
2022-08-31T05:12:41.939Z,3.83
2022-08-31T05:15:09.050Z,4.03
2022-08-31T05:17:35.992Z,5.15
2022-08-31T05:20:05.397Z,3.92
2022-08-31T05:22:32.503Z,3.85
2022-08-31T05:24:59.524Z,4.30
2022-08-31T05:27:26.363Z,4.10
2022-08-31T05:29:53.292Z,4.35
2022-08-31T05:32:20.091Z,4.03
2022-08-31T05:34:47.111Z,3.63
2022-08-31T05:37:13.983Z,3.80
2022-08-31T05:39:41.000Z,3.67
2022-08-31T05:42:07.892Z,4.30
2022-08-31T05:44:36.315Z,4.07
2022-08-31T05:47:07.105Z,3.90
2022-08-31T05:49:35.214Z,4.10
2022-08-31T05:52:03.071Z,3.60
2022-08-31T05:54:30.226Z,4.32
2022-08-31T05:56:59.905Z,3.83
2022-08-31T05:59:29.705Z,3.58
2022-08-31T06:01:57.458Z,3.85
2022-08-31T06:04:24.516Z,3.90
2022-08-31T06:06:52.346Z,3.92
2022-08-31T06:09:19.616Z,3.70
2022-08-31T06:11:46.935Z,3.40
2022-08-31T06:14:13.850Z,3.40
2022-08-31T06:16:44.441Z,3.80
2022-08-31T06:19:11.778Z,3.95
2022-08-31T06:21:49.941Z,3.38
2022-08-31T06:24:18.710Z,3.17
2022-08-31T06:26:56.835Z,3.75
2022-08-31T06:29:25.242Z,3.13
2022-08-31T06:31:52.285Z,2.78
2022-08-31T06:34:20.367Z,2.70
2022-08-31T06:36:49.852Z,3.72
2022-08-31T06:39:17.043Z,3.00
2022-08-31T06:41:44.057Z,3.42
2022-08-31T06:44:14.149Z,3.13
2022-08-31T06:46:42.258Z,2.97
2022-08-31T06:49:14.916Z,2.75
2022-08-31T06:51:41.982Z,2.55
2022-08-31T06:54:28.576Z,2.60
2022-08-31T06:57:00.302Z,2.45
2022-08-31T06:59:29.790Z,2.80
2022-08-31T07:02:01.650Z,2.67
2022-08-31T07:04:34.801Z,2.80
2022-08-31T07:07:03.690Z,2.53
2022-08-31T07:09:30.601Z,2.50
2022-08-31T07:11:57.476Z,2.78
2022-08-31T07:14:26.983Z,2.45
2022-08-31T07:16:56.801Z,2.38
2022-08-31T07:19:25.095Z,2.30
2022-08-31T07:21:54.885Z,2.70
2022-08-31T07:24:25.889Z,2.13
2022-08-31T07:27:04.537Z,2.30
2022-08-31T07:29:37.803Z,2.88
2022-08-31T07:32:04.785Z,2.53
2022-08-31T07:34:33.784Z,2.70
2022-08-31T07:37:19.757Z,2.35
2022-08-31T07:40:07.743Z,2.72
2022-08-31T07:42:39.737Z,2.35
2022-08-31T07:45:12.659Z,3.10
2022-08-31T07:47:47.180Z,2.35
2022-08-31T07:50:17.388Z,1.88
2022-08-31T07:52:54.373Z,2.72
2022-08-31T07:55:23.625Z,2.05
2022-08-31T07:57:53.554Z,2.13
2022-08-31T08:00:29.095Z,1.77
2022-08-31T08:02:56.894Z,1.80
2022-08-31T08:05:28.811Z,1.95
2022-08-31T08:08:11.868Z,1.95
2022-08-31T08:10:46.643Z,1.70
2022-08-31T08:13:20.453Z,1.90
2022-08-31T08:15:52.094Z,2.10
2022-08-31T08:18:19.588Z,1.60
2022-08-31T08:20:46.768Z,2.10
2022-08-31T08:23:18.299Z,2.10
2022-08-31T08:25:48.056Z,1.88
2022-08-31T08:31:05.940Z,1.90
2022-08-31T08:33:35.439Z,1.65
2022-08-31T08:36:07.928Z,1.88
2022-08-31T08:38:39.308Z,1.52
2022-08-31T08:41:13.239Z,2.22
2022-08-31T08:43:43.890Z,2.28
2022-08-31T08:46:31.728Z,1.40
2022-08-31T08:49:15.198Z,1.50
2022-08-31T08:51:42.991Z,1.23
2022-08-31T08:54:19.401Z,1.63
2022-08-31T08:56:49.420Z,1.20
2022-08-31T08:59:19.992Z,1.65
2022-08-31T09:01:51.571Z,1.52
2022-08-31T09:04:18.408Z,1.75
2022-08-31T09:07:09.351Z,2.28
2022-08-31T09:09:57.503Z,1.52
2022-08-31T09:12:31.912Z,1.38
2022-08-31T09:15:28.436Z,1.27
2022-08-31T09:18:13.720Z,1.20
2022-08-31T09:20:41.361Z,1.77
2022-08-31T09:23:08.269Z,1.20
2022-08-31T09:25:59.072Z,1.42
2022-08-31T09:28:36.139Z,1.65
2022-08-31T09:31:03.818Z,1.38
2022-08-31T09:33:34.531Z,1.30
2022-08-31T09:36:18.430Z,1.40
2022-08-31T09:38:47.231Z,1.30
2022-08-31T09:41:29.065Z,1.57
2022-08-31T09:44:47.825Z,1.40
2022-08-31T09:47:30.623Z,1.67
2022-08-31T09:49:58.047Z,1.65
2022-08-31T09:52:50.014Z,2.03
2022-08-31T09:55:25.004Z,1.70
2022-08-31T09:58:03.138Z,1.77
2022-08-31T10:00:39.926Z,1.35
2022-08-31T10:03:09.961Z,1.45
2022-08-31T10:05:43.625Z,1.50
2022-08-31T10:08:33.946Z,1.02
2022-08-31T10:11:12.488Z,1.50
2022-08-31T10:13:46.456Z,1.50
2022-08-31T10:16:30.551Z,1.60
2022-08-31T10:19:06.638Z,1.65
2022-08-31T10:21:44.106Z,1.33
2022-08-31T10:24:33.744Z,1.00
2022-08-31T10:27:31.606Z,1.23
2022-08-31T10:30:02.897Z,1.08
2022-08-31T10:32:53.375Z,1.17
2022-08-31T10:35:46.972Z,1.23
2022-08-31T10:38:26.422Z,1.23
2022-08-31T10:43:49.108Z,1.40
2022-08-31T10:46:16.752Z,1.58
2022-08-31T10:48:47.359Z,1.30
2022-08-31T10:51:22.480Z,1.30
2022-08-31T10:54:28.929Z,1.50
2022-08-31T10:57:21.398Z,1.40
2022-08-31T10:59:55.828Z,1.20
2022-08-31T11:02:55.663Z,1.17
2022-08-31T11:08:32.208Z,1.25
2022-08-31T11:11:00.679Z,1.33
2022-08-31T11:13:51.330Z,1.20
2022-08-31T11:16:36.788Z,1.33
2022-08-31T11:19:19.708Z,1.10
2022-08-31T11:22:08.367Z,1.20
2022-08-31T11:25:03.492Z,0.77
2022-08-31T11:27:39.781Z,0.85
2022-08-31T11:30:26.908Z,0.93
2022-08-31T11:32:59.716Z,0.95
2022-08-31T11:36:20.252Z,0.80
2022-08-31T11:39:05.565Z,1.10
2022-08-31T11:41:51.676Z,1.15
2022-08-31T11:44:30.997Z,0.95
2022-08-31T11:47:29.270Z,0.90
2022-08-31T11:50:04.048Z,1.40
2022-08-31T11:52:48.634Z,1.00
2022-08-31T11:55:23.590Z,1.05
2022-08-31T11:58:10.279Z,0.90
2022-08-31T12:00:57.456Z,0.75
2022-08-31T12:03:38.779Z,1.10
2022-08-31T12:06:09.249Z,0.82
2022-08-31T12:08:52.536Z,0.82
2022-08-31T12:11:37.236Z,0.60
2022-08-31T12:14:29.648Z,0.70
2022-08-31T12:17:09.724Z,0.70
2022-08-31T12:20:02.439Z,0.70
2022-08-31T12:23:30.061Z,1.02
2022-08-31T12:26:24.223Z,0.88
2022-08-31T12:28:51.012Z,0.60
2022-08-31T12:31:18.808Z,0.50
2022-08-31T12:34:08.266Z,0.68
2022-08-31T12:36:36.664Z,0.77
2022-08-31T12:39:10.045Z,0.30
2022-08-31T12:41:47.155Z,0.60
2022-08-31T12:44:45.614Z,0.93
2022-08-31T12:47:43.299Z,2.78
2022-08-31T12:50:37.825Z,0.57
2022-08-31T12:53:13.824Z,0.90
2022-08-31T12:55:46.735Z,0.50
2022-08-31T12:58:53.172Z,0.50
2022-08-31T13:01:24.107Z,0.60
2022-08-31T13:03:55.171Z,0.50
2022-08-31T13:06:36.542Z,0.50
2022-08-31T13:09:05.723Z,0.60
2022-08-31T13:11:55.219Z,0.65
2022-08-31T13:14:26.861Z,0.50
2022-08-31T13:17:03.724Z,0.43
2022-08-31T13:19:33.361Z,0.50
2022-08-31T13:22:17.291Z,0.40
2022-08-31T13:24:53.788Z,0.73
2022-08-31T13:27:27.205Z,0.70
2022-08-31T13:29:59.387Z,0.73
2022-08-31T13:32:34.086Z,0.45
2022-08-31T13:35:09.234Z,0.93
2022-08-31T13:38:05.119Z,0.85
2022-08-31T13:40:39.685Z,0.63
2022-08-31T13:43:10.112Z,0.90
2022-08-31T13:45:57.902Z,0.50
2022-08-31T13:48:32.683Z,0.60
2022-08-31T13:51:13.169Z,0.60
2022-08-31T13:54:06.077Z,2.38
2022-08-31T13:56:51.451Z,0.52
2022-08-31T13:59:24.327Z,0.40
2022-08-31T14:02:04.914Z,0.50
2022-08-31T14:05:38.454Z,0.75
2022-08-31T14:08:09.463Z,0.47
2022-08-31T14:10:48.082Z,0.45
2022-08-31T14:13:14.892Z,0.77
2022-08-31T14:15:56.581Z,0.30
2022-08-31T14:18:26.022Z,0.30
2022-08-31T14:21:21.626Z,0.73
2022-08-31T14:24:00.544Z,0.40
2022-08-31T14:26:30.541Z,0.60
2022-08-31T14:29:00.601Z,0.40
2022-08-31T14:31:37.560Z,0.70
2022-08-31T14:34:24.993Z,0.50
2022-08-31T14:37:08.309Z,0.82
2022-08-31T14:39:45.630Z,0.47
2022-08-31T14:42:29.381Z,0.40
2022-08-31T14:45:04.008Z,1.38
2022-08-31T14:47:42.787Z,0.30
2022-08-31T14:50:12.567Z,0.40
2022-08-31T14:52:46.339Z,0.50
2022-08-31T14:55:14.370Z,0.77
2022-08-31T14:57:46.706Z,0.80
2022-08-31T15:00:23.403Z,0.70
2022-08-31T15:02:57.617Z,1.15
2022-08-31T15:05:25.864Z,0.50
2022-08-31T15:07:56.980Z,0.55
2022-08-31T15:10:25.943Z,1.13
2022-08-31T15:12:53.842Z,1.48
2022-08-31T15:15:21.090Z,0.50
2022-08-31T15:17:51.507Z,0.75
2022-08-31T15:20:23.409Z,0.40
2022-08-31T15:22:50.702Z,0.50
2022-08-31T15:25:19.999Z,3.45
2022-08-31T15:27:49.515Z,0.70
2022-08-31T15:30:19.232Z,0.47
2022-08-31T15:32:48.316Z,0.60
2022-08-31T15:35:23.538Z,0.95
2022-08-31T15:38:00.591Z,0.95
2022-08-31T15:40:39.074Z,0.90
2022-08-31T15:43:09.702Z,0.55
2022-08-31T15:45:37.364Z,0.90
2022-08-31T15:48:23.494Z,0.60
2022-08-31T15:51:00.368Z,0.50
2022-08-31T15:53:29.519Z,0.50
2022-08-31T15:56:08.323Z,0.70
2022-08-31T15:58:39.121Z,0.40
2022-08-31T16:01:18.306Z,0.50
2022-08-31T16:04:07.020Z,1.40
2022-08-31T16:06:35.039Z,0.50
2022-08-31T16:09:03.738Z,0.55
2022-08-31T16:11:37.000Z,0.70
2022-08-31T16:14:05.380Z,0.50
2022-08-31T16:16:35.519Z,0.45
2022-08-31T16:19:04.364Z,0.68
2022-08-31T16:21:35.752Z,0.60
2022-08-31T16:24:08.049Z,0.60
2022-08-31T16:26:42.662Z,0.57
2022-08-31T16:29:14.609Z,0.60
2022-08-31T16:31:43.732Z,0.57
2022-08-31T16:34:10.754Z,0.70
2022-08-31T16:36:37.680Z,0.50
2022-08-31T16:39:04.615Z,0.50
2022-08-31T16:41:33.575Z,0.57
2022-08-31T16:44:19.012Z,0.80
2022-08-31T16:46:47.434Z,0.60
2022-08-31T16:49:33.017Z,0.63
2022-08-31T16:52:11.071Z,0.98
2022-08-31T16:54:47.597Z,0.60
2022-08-31T16:57:17.243Z,0.68
2022-08-31T16:59:44.939Z,0.80
2022-08-31T17:02:13.810Z,1.00
2022-08-31T17:04:58.076Z,0.88
2022-08-31T17:07:25.325Z,0.73
2022-08-31T17:09:56.694Z,0.50
2022-08-31T17:12:26.195Z,0.70
2022-08-31T17:14:53.302Z,0.68
2022-08-31T17:17:23.509Z,0.80
2022-08-31T17:19:53.314Z,0.82
2022-08-31T17:24:59.396Z,0.30
2022-08-31T17:27:27.589Z,0.77
2022-08-31T17:30:00.903Z,0.73
2022-08-31T17:32:28.739Z,0.95
2022-08-31T17:34:56.583Z,0.52
2022-08-31T17:37:27.230Z,0.52
2022-08-31T17:39:57.743Z,0.50
2022-08-31T17:42:27.328Z,0.60
2022-08-31T17:44:55.619Z,0.50
2022-08-31T17:47:25.489Z,0.50
2022-08-31T17:52:21.959Z,0.63
2022-08-31T17:54:51.119Z,0.50
2022-08-31T17:57:22.381Z,0.40
2022-08-31T17:59:49.318Z,0.50
2022-08-31T18:02:22.891Z,0.63
2022-08-31T18:04:52.180Z,0.50
2022-08-31T18:07:19.822Z,0.68
2022-08-31T18:09:47.108Z,0.60
2022-08-31T18:12:22.070Z,0.47
2022-08-31T18:14:49.894Z,0.45
2022-08-31T18:17:17.289Z,0.70
2022-08-31T18:19:47.374Z,0.55
2022-08-31T18:22:14.867Z,0.80
2022-08-31T18:24:42.521Z,0.60
2022-08-31T18:27:11.186Z,0.40
2022-08-31T18:29:39.520Z,0.60
2022-08-31T18:32:07.881Z,0.50
2022-08-31T18:34:39.146Z,0.40
2022-08-31T18:37:08.017Z,0.55
2022-08-31T18:39:54.797Z,0.50
2022-08-31T18:42:44.180Z,0.85
2022-08-31T18:45:18.508Z,0.40
2022-08-31T18:48:13.743Z,0.50
2022-08-31T18:50:37.224Z,0.50
2022-08-31T18:53:10.887Z,1.02
2022-08-31T18:55:43.204Z,0.65
2022-08-31T18:58:10.368Z,0.52
2022-08-31T19:00:37.758Z,0.65
2022-08-31T19:03:04.792Z,0.55
2022-08-31T19:05:32.777Z,1.88
2022-08-31T19:08:00.616Z,0.60
2022-08-31T19:10:54.082Z,0.43
2022-08-31T19:13:21.146Z,0.50
2022-08-31T19:15:48.260Z,0.50
2022-08-31T19:18:15.501Z,0.50
2022-08-31T19:20:42.464Z,0.60
2022-08-31T19:23:09.283Z,0.50
2022-08-31T19:25:42.532Z,0.98
2022-08-31T19:28:10.358Z,0.60
2022-08-31T19:30:38.355Z,0.50
2022-08-31T19:33:08.445Z,0.98
2022-08-31T19:35:36.513Z,0.50
2022-08-31T19:38:03.596Z,0.47
2022-08-31T19:40:36.695Z,0.70
2022-08-31T19:45:51.954Z,0.57
2022-08-31T19:48:23.939Z,0.50
2022-08-31T19:50:52.312Z,0.52
2022-08-31T19:53:21.861Z,0.60
2022-08-31T19:55:54.919Z,0.65
2022-08-31T19:58:26.551Z,0.95
2022-08-31T20:01:04.267Z,0.40
2022-08-31T20:03:34.252Z,0.60
2022-08-31T20:08:41.273Z,0.70
2022-08-31T20:11:09.624Z,0.50
2022-08-31T20:13:38.550Z,0.70
2022-08-31T20:16:06.344Z,0.50
2022-08-31T20:18:37.482Z,0.50
2022-08-31T20:21:16.938Z,0.50
2022-08-31T20:23:48.246Z,0.68
2022-08-31T20:26:17.315Z,0.45
2022-08-31T20:28:46.846Z,0.40
2022-08-31T20:31:14.179Z,0.52
2022-08-31T20:33:42.341Z,0.40
2022-08-31T20:36:33.538Z,0.45
2022-08-31T20:39:02.776Z,0.50
2022-08-31T20:41:36.115Z,0.40
2022-08-31T20:44:12.014Z,0.50
2022-08-31T20:47:05.283Z,0.60
2022-08-31T20:49:35.790Z,0.50
2022-08-31T20:52:03.625Z,0.50
2022-08-31T20:54:31.708Z,0.70
2022-08-31T20:57:00.967Z,0.47
2022-08-31T20:59:27.919Z,0.53
2022-08-31T21:02:02.175Z,0.50
2022-08-31T21:04:30.703Z,0.38
2022-08-31T21:06:59.846Z,0.40
2022-08-31T21:09:27.428Z,0.30
2022-08-31T21:11:56.146Z,0.60
2022-08-31T21:14:27.147Z,0.52
2022-08-31T21:16:55.642Z,0.45
2022-08-31T21:19:24.403Z,0.55
2022-08-31T21:21:55.951Z,0.50
2022-08-31T21:24:23.035Z,0.60
2022-08-31T21:26:57.274Z,0.50
2022-08-31T21:29:24.056Z,0.43
2022-08-31T21:31:58.303Z,0.68
2022-08-31T21:34:29.823Z,0.50
2022-08-31T21:36:56.770Z,0.70
2022-08-31T21:39:25.052Z,0.70
2022-08-31T21:41:52.032Z,0.60
2022-08-31T21:44:23.072Z,0.75
2022-08-31T21:46:51.019Z,0.60
2022-08-31T21:49:22.936Z,0.63
2022-08-31T21:51:54.678Z,0.70
2022-08-31T21:54:27.351Z,1.52
2022-08-31T21:57:04.356Z,0.65
2022-08-31T21:59:35.239Z,0.55
2022-08-31T22:02:06.925Z,0.57
2022-08-31T22:04:38.500Z,0.68
2022-08-31T22:07:07.826Z,0.68
2022-08-31T22:09:36.903Z,1.05
2022-08-31T22:12:06.696Z,0.60
2022-08-31T22:14:37.362Z,0.47
2022-08-31T22:17:07.160Z,0.70
2022-08-31T22:19:38.195Z,0.60
2022-08-31T22:22:09.250Z,0.70
2022-08-31T22:24:40.478Z,0.40
2022-08-31T22:27:09.893Z,0.63
2022-08-31T22:29:38.220Z,0.57
2022-08-31T22:32:10.216Z,0.70
2022-08-31T22:34:39.049Z,0.80
2022-08-31T22:37:06.426Z,0.60
2022-08-31T22:39:33.346Z,0.73
2022-08-31T22:42:01.654Z,0.70
2022-08-31T22:44:32.408Z,0.68
2022-08-31T22:46:59.475Z,0.80
2022-08-31T22:49:27.173Z,0.68
2022-08-31T22:51:54.938Z,0.80
2022-08-31T22:54:23.184Z,0.70
2022-08-31T22:56:50.188Z,0.70
2022-08-31T22:59:24.858Z,0.65
2022-08-31T23:01:55.023Z,0.85
2022-08-31T23:04:24.672Z,0.65
2022-08-31T23:06:52.777Z,0.65
2022-08-31T23:09:26.666Z,1.40
2022-08-31T23:11:58.200Z,0.80
2022-08-31T23:14:25.048Z,0.70
2022-08-31T23:16:58.063Z,0.65
2022-08-31T23:19:36.942Z,0.70
2022-08-31T23:22:09.519Z,0.77
2022-08-31T23:24:47.078Z,0.55
2022-08-31T23:27:19.519Z,0.65
2022-08-31T23:29:52.571Z,0.70
2022-08-31T23:32:21.996Z,2.55
2022-08-31T23:34:52.844Z,0.60
2022-08-31T23:37:23.168Z,0.70
2022-08-31T23:39:54.449Z,0.50
2022-08-31T23:42:23.639Z,0.60
2022-08-31T23:44:51.136Z,0.60
2022-08-31T23:47:23.778Z,0.73
2022-08-31T23:49:51.418Z,0.60
2022-08-31T23:52:26.291Z,0.60
2022-08-31T23:54:57.768Z,0.65
2022-08-31T23:57:32.264Z,1.52
